createdAt,value
2022-12-03T00:00:12.910Z,102136.34
2022-12-03T00:02:41.765Z,102140.66
2022-12-03T00:05:10.800Z,102131.19
2022-12-03T00:07:38.204Z,102136.34
2022-12-03T00:10:07.861Z,102133.75
2022-12-03T00:12:35.436Z,102124.34
2022-12-03T00:15:02.854Z,102131.19
2022-12-03T00:17:31.031Z,102132.06
2022-12-03T00:19:58.767Z,102127.75
2022-12-03T00:22:26.275Z,102127.72
2022-12-03T00:24:53.829Z,102117.38
2022-12-03T00:27:21.339Z,102123.44
2022-12-03T00:29:48.931Z,102119.97
2022-12-03T00:32:16.411Z,102116.56
2022-12-03T00:34:43.692Z,102115.72
2022-12-03T00:37:10.830Z,102117.44
2022-12-03T00:39:38.561Z,102117.44
2022-12-03T00:42:06.319Z,102109.69
2022-12-03T00:44:33.537Z,102113.13
2022-12-03T00:47:00.908Z,102113.97
2022-12-03T00:49:28.087Z,102113.94
2022-12-03T00:51:55.632Z,102109.66
2022-12-03T00:54:26.977Z,102109.66
2022-12-03T00:56:59.064Z,102106.19
2022-12-03T00:59:26.443Z,102110.53
2022-12-03T01:01:53.648Z,102104.47
2022-12-03T01:04:21.372Z,102111.38
2022-12-03T01:06:48.560Z,102108.84
2022-12-03T01:09:15.803Z,102114.81
2022-12-03T01:11:42.965Z,102113.97
2022-12-03T01:14:18.319Z,102113.94
2022-12-03T01:16:47.195Z,102113.94
2022-12-03T01:19:19.465Z,102119.13
2022-12-03T01:21:51.553Z,102115.69
2022-12-03T01:24:20.553Z,102111.38
2022-12-03T01:26:47.866Z,102113.97
2022-12-03T01:29:15.512Z,102107.94
2022-12-03T01:32:01.669Z,102108.81
2022-12-03T01:34:28.978Z,102109.66
2022-12-03T01:36:56.931Z,102105.34
2022-12-03T01:39:24.289Z,102106.22
2022-12-03T01:41:54.261Z,102097.59
2022-12-03T01:44:31.032Z,102108.78
2022-12-03T01:47:03.238Z,102103.59
2022-12-03T01:50:19.060Z,102100.19
2022-12-03T01:52:46.750Z,102107.97
2022-12-03T01:55:19.758Z,102104.50
2022-12-03T01:57:53.961Z,102105.34
2022-12-03T02:00:26.959Z,102101.88
2022-12-03T02:03:00.029Z,102094.16
2022-12-03T02:05:33.736Z,102095.88
2022-12-03T02:08:01.897Z,102095.91
2022-12-03T02:10:36.135Z,102097.63
2022-12-03T02:13:10.951Z,102094.16
2022-12-03T02:15:41.495Z,102102.81
2022-12-03T02:18:10.251Z,102104.50
2022-12-03T02:21:07.996Z,102092.47
2022-12-03T02:24:08.279Z,102092.47
2022-12-03T02:26:35.872Z,102090.72
2022-12-03T02:29:04.080Z,102095.03
2022-12-03T02:31:33.161Z,102089.88
2022-12-03T02:34:06.245Z,102088.97
2022-12-03T02:36:35.681Z,102085.56
2022-12-03T02:39:04.829Z,102086.41
2022-12-03T02:41:51.195Z,102083.81
2022-12-03T02:44:18.870Z,102080.38
2022-12-03T02:46:46.574Z,102076.97
2022-12-03T02:49:14.114Z,102076.06
2022-12-03T02:51:41.378Z,102070.88
2022-12-03T02:54:08.540Z,102080.38
2022-12-03T02:56:35.997Z,102077.78
2022-12-03T02:59:05.552Z,102076.94
2022-12-03T03:01:35.016Z,102079.53
2022-12-03T03:04:04.481Z,102082.13
2022-12-03T03:06:31.841Z,102084.72
2022-12-03T03:08:59.555Z,102081.25
2022-12-03T03:11:27.632Z,102076.06
2022-12-03T03:13:55.513Z,102068.28
2022-12-03T03:16:22.924Z,102067.44
2022-12-03T03:18:50.579Z,102070.06
2022-12-03T03:21:17.849Z,102074.38
2022-12-03T03:23:45.189Z,102057.09
2022-12-03T03:26:16.128Z,102070.06
2022-12-03T03:28:50.684Z,102061.44
2022-12-03T03:31:23.671Z,102064.03
2022-12-03T03:33:52.015Z,102062.28
2022-12-03T03:36:20.893Z,102055.38
2022-12-03T03:38:49.237Z,102058.84
2022-12-03T03:41:18.626Z,102054.53
2022-12-03T03:43:49.340Z,102055.38
2022-12-03T03:46:19.485Z,102050.22
2022-12-03T03:48:48.859Z,102047.63
2022-12-03T03:51:18.857Z,102044.19
2022-12-03T03:53:50.477Z,102041.63
2022-12-03T03:56:21.247Z,102043.34
2022-12-03T03:58:48.948Z,102051.09
2022-12-03T04:01:18.263Z,102048.50
2022-12-03T04:03:45.870Z,102042.44
2022-12-03T04:06:13.148Z,102044.19
2022-12-03T04:08:40.392Z,102042.44
2022-12-03T04:11:26.301Z,102050.19
2022-12-03T04:13:53.490Z,102044.19
2022-12-03T04:16:21.066Z,102050.22
2022-12-03T04:18:48.220Z,102044.19
2022-12-03T04:21:41.208Z,102040.75
2022-12-03T04:24:12.097Z,102045.03
2022-12-03T04:26:57.969Z,102041.63
2022-12-03T04:29:25.523Z,102042.47
2022-12-03T04:32:11.540Z,102045.91
2022-12-03T04:34:57.550Z,102040.75
2022-12-03T04:37:24.883Z,102041.59
2022-12-03T04:39:52.326Z,102039.03
2022-12-03T04:42:20.029Z,102042.47
2022-12-03T04:44:47.632Z,102036.44
2022-12-03T04:47:21.247Z,102028.69
2022-12-03T04:49:52.503Z,102033.84
2022-12-03T04:52:21.154Z,102028.66
2022-12-03T04:54:48.913Z,102037.25
2022-12-03T04:57:16.479Z,102029.50
2022-12-03T04:59:43.679Z,102032.06
2022-12-03T05:02:10.923Z,102026.91
2022-12-03T05:04:38.139Z,102026.91
2022-12-03T05:07:05.316Z,102037.28
2022-12-03T05:09:33.296Z,102025.25
2022-12-03T05:12:00.786Z,102024.34
2022-12-03T05:14:27.987Z,102025.25
2022-12-03T05:16:55.256Z,102026.94
2022-12-03T05:19:42.817Z,102025.22
2022-12-03T05:22:10.018Z,102021.75
2022-12-03T05:24:37.518Z,102025.22
2022-12-03T05:27:05.239Z,102023.50
2022-12-03T05:29:32.381Z,102024.34
2022-12-03T05:31:59.892Z,102021.75
2022-12-03T05:34:27.387Z,102016.59
2022-12-03T05:36:54.912Z,102019.19
2022-12-03T05:39:22.478Z,102014.91
2022-12-03T05:42:08.408Z,102004.56
2022-12-03T05:44:35.548Z,102007.97
2022-12-03T05:47:02.769Z,101999.38
2022-12-03T05:49:30.380Z,102008.00
2022-12-03T05:51:58.801Z,102001.97
2022-12-03T05:54:26.937Z,102007.97
2022-12-03T05:56:54.124Z,102005.38
2022-12-03T05:59:21.293Z,101994.19
2022-12-03T06:01:48.974Z,102002.78
2022-12-03T06:04:16.162Z,102000.22
2022-12-03T06:06:43.659Z,102007.97
2022-12-03T06:09:10.833Z,102009.72
2022-12-03T06:11:38.057Z,102010.56
2022-12-03T06:14:05.301Z,102007.13
2022-12-03T06:16:32.558Z,102001.09
2022-12-03T06:19:00.834Z,102005.41
2022-12-03T06:21:28.972Z,102008.81
2022-12-03T06:23:56.254Z,101996.78
2022-12-03T06:26:23.484Z,102000.22
2022-12-03T06:28:50.676Z,102006.25
2022-12-03T06:31:18.360Z,102009.72
2022-12-03T06:33:45.611Z,101991.63
2022-12-03T06:36:13.669Z,101994.22
2022-12-03T06:38:41.745Z,102000.22
2022-12-03T06:41:08.914Z,101996.78
2022-12-03T06:43:36.080Z,102004.53
2022-12-03T06:46:03.262Z,101995.06
2022-12-03T06:48:30.465Z,101995.03
2022-12-03T06:50:58.066Z,101995.03
2022-12-03T06:53:25.419Z,101989.88
2022-12-03T06:55:52.935Z,101987.28
2022-12-03T06:58:20.171Z,101984.72
2022-12-03T07:00:47.940Z,101988.16
2022-12-03T07:03:16.449Z,101988.16
2022-12-03T07:05:44.032Z,101990.72
2022-12-03T07:08:11.648Z,101991.59
2022-12-03T07:10:38.913Z,101992.44
2022-12-03T07:13:06.107Z,101998.47
2022-12-03T07:15:33.291Z,101987.31
2022-12-03T07:18:00.912Z,101991.63
2022-12-03T07:20:28.552Z,101997.63
2022-12-03T07:22:57.990Z,101993.31
2022-12-03T07:25:25.272Z,101995.03
2022-12-03T07:27:52.420Z,101988.16
2022-12-03T07:30:20.092Z,101985.56
2022-12-03T07:32:47.813Z,101990.72
2022-12-03T07:35:15.552Z,101988.16
2022-12-03T07:37:43.215Z,101998.50
2022-12-03T07:40:11.915Z,101995.06
2022-12-03T07:42:39.426Z,101991.63
2022-12-03T07:45:08.088Z,101998.50
2022-12-03T07:47:35.239Z,101994.22
2022-12-03T07:50:02.424Z,101989.88
2022-12-03T07:52:29.649Z,101990.72
2022-12-03T07:54:57.172Z,101992.47
2022-12-03T07:57:24.747Z,101998.50
2022-12-03T07:59:53.404Z,101999.38
2022-12-03T08:02:21.879Z,101998.50
2022-12-03T08:04:49.708Z,101997.66
2022-12-03T08:07:16.993Z,102001.09
2022-12-03T08:09:44.471Z,101994.22
2022-12-03T08:12:45.709Z,101999.38
2022-12-03T08:15:20.976Z,102001.94
2022-12-03T08:17:58.702Z,102006.25
2022-12-03T08:20:33.463Z,102004.53
2022-12-03T08:23:27.759Z,102006.25
2022-12-03T08:25:55.008Z,102004.56
2022-12-03T08:28:27.091Z,102003.66
2022-12-03T08:31:12.106Z,102010.53
2022-12-03T08:33:40.581Z,102008.81
2022-12-03T08:36:41.748Z,102006.22
2022-12-03T08:39:41.482Z,102007.97
2022-12-03T08:42:37.034Z,102021.75
2022-12-03T08:45:32.133Z,102005.38
2022-12-03T08:48:19.956Z,102010.53
2022-12-03T08:50:48.151Z,102005.38
2022-12-03T08:53:30.971Z,102006.22
2022-12-03T08:56:23.858Z,102002.81
2022-12-03T08:59:21.560Z,102000.22
2022-12-03T09:01:51.570Z,102001.94
2022-12-03T09:04:38.739Z,102001.97
2022-12-03T09:07:06.071Z,102004.53
2022-12-03T09:09:34.616Z,101995.06
2022-12-03T09:12:02.257Z,102000.25
2022-12-03T09:14:29.960Z,102002.00
2022-12-03T09:16:57.773Z,102005.41
2022-12-03T09:19:27.975Z,102001.09
2022-12-03T09:21:55.293Z,101996.81
2022-12-03T09:24:22.937Z,102001.09
2022-12-03T09:26:50.392Z,101999.38
2022-12-03T09:29:17.933Z,102001.97
2022-12-03T09:31:45.651Z,102009.72
2022-12-03T09:34:13.218Z,101995.91
2022-12-03T09:36:40.786Z,101995.03
2022-12-03T09:39:07.977Z,102003.66
2022-12-03T09:41:36.081Z,102005.38
2022-12-03T09:44:05.218Z,101995.06
2022-12-03T09:46:36.194Z,101999.38
2022-12-03T09:49:12.280Z,101991.63
2022-12-03T09:51:41.503Z,101986.44
2022-12-03T09:54:29.012Z,101982.97
2022-12-03T09:57:00.409Z,101986.44
2022-12-03T09:59:34.291Z,101986.44
2022-12-03T10:02:03.390Z,101978.69
2022-12-03T10:04:31.585Z,101975.19
2022-12-03T10:07:00.544Z,101981.25
2022-12-03T10:09:30.405Z,101970.94
2022-12-03T10:11:59.846Z,101976.94
2022-12-03T10:14:31.600Z,101969.19
2022-12-03T10:16:59.293Z,101975.22
2022-12-03T10:19:32.790Z,101969.19
2022-12-03T10:22:00.577Z,101967.47
2022-12-03T10:24:32.664Z,101964.03
2022-12-03T10:27:29.534Z,101958.00
2022-12-03T10:30:04.342Z,101960.59
2022-12-03T10:32:50.302Z,101960.59
2022-12-03T10:35:41.173Z,101951.97
2022-12-03T10:38:17.853Z,101949.38
2022-12-03T10:40:47.269Z,101950.28
2022-12-03T10:43:23.954Z,101948.53
2022-12-03T10:46:21.261Z,101933.91
2022-12-03T10:49:16.952Z,101940.78
2022-12-03T10:51:48.184Z,101938.19
2022-12-03T10:54:23.736Z,101928.72
2022-12-03T10:56:53.108Z,101920.13
2022-12-03T10:59:26.029Z,101915.81
2022-12-03T11:01:53.701Z,101914.97
2022-12-03T11:04:45.659Z,101902.91
2022-12-03T11:07:18.498Z,101903.81
2022-12-03T11:09:50.335Z,101905.50
2022-12-03T11:12:28.099Z,101916.72
2022-12-03T11:14:56.720Z,101908.97
2022-12-03T11:17:56.969Z,101895.16
2022-12-03T11:20:24.503Z,101906.38
2022-12-03T11:22:55.298Z,101892.59
2022-12-03T11:25:26.053Z,101905.50
2022-12-03T11:28:12.503Z,101893.47
2022-12-03T11:30:53.247Z,101901.22
2022-12-03T11:33:31.059Z,101888.31
2022-12-03T11:36:04.418Z,101881.41
2022-12-03T11:38:37.756Z,101878.81
2022-12-03T11:41:35.031Z,101876.25
2022-12-03T11:44:32.342Z,101874.50
2022-12-03T11:47:12.711Z,101870.22
2022-12-03T11:49:47.798Z,101866.75
2022-12-03T11:52:44.249Z,101863.31
2022-12-03T11:55:30.579Z,101859.00
2022-12-03T11:58:03.249Z,101853.00
2022-12-03T12:00:31.078Z,101854.72
2022-12-03T12:02:59.413Z,101859.88
2022-12-03T12:05:34.197Z,101849.56
2022-12-03T12:08:05.109Z,101857.28
2022-12-03T12:10:49.749Z,101856.41
2022-12-03T12:13:33.790Z,101857.31
2022-12-03T12:16:06.839Z,101853.84
2022-12-03T12:18:42.803Z,101850.41
2022-12-03T12:21:43.439Z,101851.25
2022-12-03T12:24:30.515Z,101846.09
2022-12-03T12:27:06.401Z,101844.38
2022-12-03T12:29:36.894Z,101846.09
2022-12-03T12:32:34.684Z,101839.22
2022-12-03T12:35:20.628Z,101834.91
2022-12-03T12:38:06.110Z,101834.06
2022-12-03T12:40:39.842Z,101828.88
2022-12-03T12:43:26.162Z,101822.84
2022-12-03T12:46:13.534Z,101822.84
2022-12-03T12:48:46.192Z,101814.22
2022-12-03T12:51:18.806Z,101812.50
2022-12-03T12:53:47.001Z,101806.47
2022-12-03T12:56:32.259Z,101812.50
2022-12-03T12:59:12.978Z,101805.63
2022-12-03T13:01:43.287Z,101809.91
2022-12-03T13:04:24.310Z,101808.22
2022-12-03T13:06:54.748Z,101809.06
2022-12-03T13:09:27.033Z,101804.75
2022-12-03T13:12:04.028Z,101799.56
2022-12-03T13:14:36.932Z,101797.88
2022-12-03T13:17:26.053Z,101790.97
2022-12-03T13:20:06.748Z,101793.56
2022-12-03T13:22:35.201Z,101779.81
2022-12-03T13:28:42.281Z,101784.97
2022-12-03T13:31:33.676Z,101788.41
2022-12-03T13:34:02.584Z,101775.47
2022-12-03T13:36:42.773Z,101782.38
2022-12-03T13:39:47.641Z,101784.09
2022-12-03T13:42:37.980Z,101777.22
2022-12-03T13:45:14.699Z,101777.22
2022-12-03T13:47:49.507Z,101772.91
2022-12-03T13:50:31.876Z,101766.88
2022-12-03T13:53:27.874Z,101779.81
2022-12-03T13:56:27.317Z,101764.31
2022-12-03T13:58:57.895Z,101767.75
2022-12-03T14:01:25.193Z,101764.31
2022-12-03T14:03:53.024Z,101766.91
2022-12-03T14:06:20.812Z,101767.75
2022-12-03T14:08:48.648Z,101770.31
2022-12-03T14:11:35.255Z,101758.25
2022-12-03T14:14:03.105Z,101762.59
2022-12-03T14:16:30.689Z,101759.16
2022-12-03T14:18:57.857Z,101759.16
2022-12-03T14:21:25.104Z,101760.84
2022-12-03T14:23:52.694Z,101763.44
2022-12-03T14:26:20.321Z,101766.91
2022-12-03T14:28:47.878Z,101762.59
2022-12-03T14:31:15.133Z,101765.16
2022-12-03T14:33:42.761Z,101765.16
2022-12-03T14:36:10.194Z,101766.00
2022-12-03T14:38:37.804Z,101766.03
2022-12-03T14:41:25.166Z,101767.75
2022-12-03T14:43:52.393Z,101774.66
2022-12-03T14:46:19.695Z,101766.91
2022-12-03T14:48:47.314Z,101766.03
2022-12-03T14:51:14.527Z,101764.31
2022-12-03T14:53:41.719Z,101762.59
2022-12-03T14:56:09.007Z,101761.72
2022-12-03T14:58:36.280Z,101763.44
2022-12-03T15:01:03.516Z,101747.09
2022-12-03T15:03:30.872Z,101747.94
2022-12-03T15:06:00.577Z,101743.66
2022-12-03T15:08:28.773Z,101742.78
2022-12-03T15:10:56.318Z,101750.53
2022-12-03T15:13:23.936Z,101755.69
2022-12-03T15:15:51.125Z,101748.84
2022-12-03T15:18:18.664Z,101742.78
2022-12-03T15:20:46.162Z,101737.63
2022-12-03T15:23:14.721Z,101747.09
2022-12-03T15:25:42.652Z,101744.50
2022-12-03T15:28:10.296Z,101749.69
2022-12-03T15:30:37.832Z,101748.84
2022-12-03T15:33:06.402Z,101753.16
2022-12-03T15:35:34.517Z,101744.53
2022-12-03T15:38:01.842Z,101752.28
2022-12-03T15:40:29.125Z,101742.81
2022-12-03T15:42:56.329Z,101747.09
2022-12-03T15:45:23.516Z,101746.25
2022-12-03T15:47:51.061Z,101751.41
2022-12-03T15:50:18.665Z,101755.69
2022-12-03T15:52:45.844Z,101754.00
2022-12-03T15:55:13.349Z,101760.00
2022-12-03T15:57:40.940Z,101754.84
2022-12-03T16:00:11.085Z,101752.28
2022-12-03T16:02:43.335Z,101739.34
2022-12-03T16:05:14.342Z,101748.84
2022-12-03T16:07:41.641Z,101741.09
2022-12-03T16:10:11.894Z,101750.56
2022-12-03T16:12:39.175Z,101748.84
2022-12-03T16:15:07.232Z,101748.84
2022-12-03T16:17:34.940Z,101738.53
2022-12-03T16:20:02.796Z,101749.69
2022-12-03T16:22:30.452Z,101748.00
2022-12-03T16:24:57.965Z,101746.25
2022-12-03T16:27:26.007Z,101741.09
2022-12-03T16:29:54.054Z,101744.53
2022-12-03T16:32:22.894Z,101748.00
2022-12-03T16:34:50.477Z,101729.94
2022-12-03T16:37:18.055Z,101738.53
2022-12-03T16:39:48.313Z,101734.19
2022-12-03T16:42:17.430Z,101735.94
2022-12-03T16:45:03.398Z,101740.22
2022-12-03T16:47:34.205Z,101736.78
2022-12-03T16:50:04.508Z,101736.78
2022-12-03T16:52:32.247Z,101729.03
2022-12-03T16:54:59.928Z,101739.34
2022-12-03T16:57:33.501Z,101735.94
2022-12-03T17:00:01.743Z,101723.03
2022-12-03T17:02:29.482Z,101725.59
2022-12-03T17:04:56.841Z,101723.88
2022-12-03T17:07:24.068Z,101729.03
2022-12-03T17:09:51.776Z,101732.50
2022-12-03T17:12:19.375Z,101728.19
2022-12-03T17:14:46.578Z,101729.91
2022-12-03T17:17:13.749Z,101726.44
2022-12-03T17:19:44.201Z,101731.63
2022-12-03T17:22:13.076Z,101735.06
2022-12-03T17:24:40.271Z,101722.19
2022-12-03T17:27:08.140Z,101738.50
2022-12-03T17:29:35.317Z,101729.91
2022-12-03T17:32:03.194Z,101720.44
2022-12-03T17:34:30.444Z,101728.19
2022-12-03T17:36:57.681Z,101734.19
2022-12-03T17:39:24.942Z,101733.34
2022-12-03T17:41:52.055Z,101732.50
2022-12-03T17:44:21.134Z,101723.88
2022-12-03T17:46:49.095Z,101722.19
2022-12-03T17:49:16.672Z,101713.53
2022-12-03T17:51:44.213Z,101717.84
2022-12-03T17:54:11.889Z,101708.38
2022-12-03T17:56:43.354Z,101708.38
2022-12-03T17:59:14.554Z,101704.97
2022-12-03T18:01:43.631Z,101703.22
2022-12-03T18:04:12.209Z,101710.13
2022-12-03T18:06:39.816Z,101701.53
2022-12-03T18:09:07.559Z,101710.97
2022-12-03T18:11:35.794Z,101717.00
2022-12-03T18:14:03.063Z,101714.41
2022-12-03T18:16:30.784Z,101706.69
2022-12-03T18:19:03.180Z,101710.97
2022-12-03T18:21:34.648Z,101713.53
2022-12-03T18:24:03.047Z,101707.53
2022-12-03T18:26:30.353Z,101718.69
2022-12-03T18:28:57.895Z,101709.25
2022-12-03T18:31:25.603Z,101706.69
2022-12-03T18:33:53.599Z,101706.69
2022-12-03T18:36:25.887Z,101710.94
2022-12-03T18:38:55.401Z,101701.50
2022-12-03T18:41:25.067Z,101700.63
2022-12-03T18:43:52.960Z,101702.38
2022-12-03T18:49:10.763Z,101705.78
2022-12-03T18:51:38.180Z,101706.66
2022-12-03T18:54:12.563Z,101696.34
2022-12-03T18:56:41.555Z,101693.78
2022-12-03T18:59:09.695Z,101692.91
2022-12-03T19:01:37.068Z,101696.34
2022-12-03T19:04:04.824Z,101697.22
2022-12-03T19:06:33.056Z,101695.47
2022-12-03T19:09:00.627Z,101698.06
2022-12-03T19:11:28.278Z,101693.78
2022-12-03T19:13:57.407Z,101703.22
2022-12-03T19:16:25.127Z,101697.19
2022-12-03T19:18:53.899Z,101696.34
2022-12-03T19:21:22.087Z,101694.59
2022-12-03T19:24:22.547Z,101689.47
2022-12-03T19:26:39.855Z,101688.59
2022-12-03T19:29:08.586Z,101698.03
2022-12-03T19:31:36.597Z,101698.94
2022-12-03T19:34:04.307Z,101699.78
2022-12-03T19:36:32.451Z,101692.03
2022-12-03T19:39:01.510Z,101698.03
2022-12-03T19:41:32.589Z,101694.59
2022-12-03T19:44:02.261Z,101692.88
2022-12-03T19:46:31.848Z,101686.03
2022-12-03T19:49:01.817Z,101687.72
2022-12-03T19:51:36.450Z,101684.31
2022-12-03T19:54:07.332Z,101682.56
2022-12-03T19:56:35.453Z,101685.13
2022-12-03T19:59:03.911Z,101677.41
2022-12-03T20:01:35.136Z,101679.97
2022-12-03T20:04:04.888Z,101680.88
2022-12-03T20:06:37.537Z,101681.72
2022-12-03T20:09:12.896Z,101686.00
2022-12-03T20:11:42.599Z,101687.72
2022-12-03T20:14:14.878Z,101701.50
2022-12-03T20:16:43.901Z,101691.16
2022-12-03T20:19:15.337Z,101693.75
2022-12-03T20:21:44.437Z,101691.16
2022-12-03T20:24:17.484Z,101692.88
2022-12-03T20:26:45.319Z,101693.75
2022-12-03T20:29:12.773Z,101689.44
2022-12-03T20:31:40.239Z,101689.44
2022-12-03T20:34:07.529Z,101692.88
2022-12-03T20:36:35.148Z,101693.75
2022-12-03T20:39:07.146Z,101689.44
2022-12-03T20:41:37.999Z,101692.88
2022-12-03T20:44:07.563Z,101674.84
2022-12-03T20:46:36.116Z,101668.81
2022-12-03T20:49:04.387Z,101661.94
2022-12-03T20:51:32.749Z,101660.22
2022-12-03T20:54:01.407Z,101664.50
2022-12-03T20:56:33.128Z,101661.06
2022-12-03T20:59:12.220Z,101664.50
2022-12-03T21:01:40.405Z,101666.22
2022-12-03T21:04:09.130Z,101669.66
2022-12-03T21:06:37.742Z,101673.09
2022-12-03T21:09:10.622Z,101666.22
2022-12-03T21:11:41.564Z,101655.06
2022-12-03T21:14:11.239Z,101666.22
2022-12-03T21:17:06.538Z,101663.63
2022-12-03T21:19:27.792Z,101659.34
2022-12-03T21:21:54.976Z,101655.06
2022-12-03T21:24:22.482Z,101655.06
2022-12-03T21:26:50.283Z,101644.75
2022-12-03T21:29:18.185Z,101643.00
2022-12-03T21:31:46.636Z,101645.56
2022-12-03T21:34:14.870Z,101646.44
2022-12-03T21:36:42.467Z,101640.44
2022-12-03T21:39:10.429Z,101641.28
2022-12-03T21:41:37.990Z,101649.88
2022-12-03T21:44:05.620Z,101632.69
2022-12-03T21:47:09.745Z,101637.84
2022-12-03T21:49:20.455Z,101644.72
2022-12-03T21:51:48.546Z,101646.44
2022-12-03T21:54:16.660Z,101636.13
2022-12-03T21:56:44.064Z,101640.44
2022-12-03T21:59:11.645Z,101637.84
2022-12-03T22:01:42.772Z,101641.28
2022-12-03T22:04:13.150Z,101643.84
2022-12-03T22:06:41.002Z,101633.53
2022-12-03T22:09:09.048Z,101642.16
2022-12-03T22:11:36.799Z,101642.16
2022-12-03T22:14:04.743Z,101644.72
2022-12-03T22:16:32.068Z,101641.25
2022-12-03T22:18:59.623Z,101648.16
2022-12-03T22:21:27.513Z,101637.00
2022-12-03T22:23:56.459Z,101639.56
2022-12-03T22:26:24.032Z,101638.69
2022-12-03T22:28:51.463Z,101625.78
2022-12-03T22:31:19.391Z,101636.09
2022-12-03T22:33:48.502Z,101643.84
2022-12-03T22:36:21.589Z,101628.38
2022-12-03T22:38:50.888Z,101620.63
2022-12-03T22:41:19.985Z,101623.22
2022-12-03T22:43:48.791Z,101628.38
2022-12-03T22:46:17.180Z,101626.69
2022-12-03T22:48:47.485Z,101626.69
2022-12-03T22:51:24.381Z,101621.53
2022-12-03T22:53:57.146Z,101624.09
2022-12-03T22:56:26.420Z,101628.38
2022-12-03T22:58:54.762Z,101622.38
2022-12-03T23:01:24.837Z,101618.06
2022-12-03T23:03:52.126Z,101613.78
2022-12-03T23:06:21.104Z,101618.06
2022-12-03T23:08:49.114Z,101616.38
2022-12-03T23:11:18.135Z,101612.91
2022-12-03T23:13:45.757Z,101611.22
2022-12-03T23:16:24.049Z,101612.06
2022-12-03T23:18:51.897Z,101606.91
2022-12-03T23:21:29.858Z,101614.63
2022-12-03T23:23:59.759Z,101612.91
2022-12-03T23:26:28.642Z,101611.22
2022-12-03T23:28:56.727Z,101618.06
2022-12-03T23:31:29.463Z,101612.91
2022-12-03T23:33:58.762Z,101612.06
2022-12-03T23:36:29.060Z,101612.06
2022-12-03T23:38:56.581Z,101606.91
2022-12-03T23:41:24.785Z,101611.22
2022-12-03T23:43:52.685Z,101600.91
2022-12-03T23:46:27.398Z,101605.19
2022-12-03T23:48:56.784Z,101606.91
2022-12-03T23:51:25.766Z,101606.91
2022-12-03T23:53:54.692Z,101602.59
2022-12-03T23:56:29.312Z,101596.59
2022-12-03T23:58:58.201Z,101610.34
